sensor_id;sensor_type;location;lat;lon;timestamp;P1;durP1;ratioP1;P2;durP2;ratioP2
17566;SDS011;8901;52.088;5.084;2023-04-05T00:10:10;15.10;;;12.30;;
17566;SDS011;8901;52.088;5.084;2023-04-05T00:12:51;13.57;;;12.37;;
17566;SDS011;8901;52.088;5.084;2023-04-05T00:24:32;14.00;;;12.57;;
17566;SDS011;8901;52.088;5.084;2023-04-05T00:27:04;13.80;;;12.47;;
17566;SDS011;8901;52.088;5.084;2023-04-05T00:29:36;13.73;;;12.53;;
17566;SDS011;8901;52.088;5.084;2023-04-05T00:32:03;14.30;;;13.10;;
17566;SDS011;8901;52.088;5.084;2023-04-05T00:34:31;14.40;;;13.03;;
17566;SDS011;8901;52.088;5.084;2023-04-05T00:36:58;14.60;;;13.30;;
17566;SDS011;8901;52.088;5.084;2023-04-05T00:39:25;14.53;;;13.20;;
17566;SDS011;8901;52.088;5.084;2023-04-05T00:41:52;15.67;;;14.27;;
17566;SDS011;8901;52.088;5.084;2023-04-05T00:44:21;14.97;;;13.57;;
17566;SDS011;8901;52.088;5.084;2023-04-05T00:46:48;15.70;;;14.03;;
17566;SDS011;8901;52.088;5.084;2023-04-05T00:49:16;14.50;;;13.20;;
17566;SDS011;8901;52.088;5.084;2023-04-05T00:51:43;13.70;;;12.60;;
17566;SDS011;8901;52.088;5.084;2023-04-05T00:54:10;15.23;;;13.73;;
17566;SDS011;8901;52.088;5.084;2023-04-05T00:56:38;14.63;;;13.43;;
17566;SDS011;8901;52.088;5.084;2023-04-05T00:59:06;15.83;;;14.43;;
17566;SDS011;8901;52.088;5.084;2023-04-05T01:01:35;15.33;;;13.87;;
17566;SDS011;8901;52.088;5.084;2023-04-05T01:04:04;15.50;;;14.20;;
17566;SDS011;8901;52.088;5.084;2023-04-05T01:06:39;15.80;;;14.33;;
17566;SDS011;8901;52.088;5.084;2023-04-05T01:09:11;15.80;;;14.30;;
17566;SDS011;8901;52.088;5.084;2023-04-05T01:11:40;14.90;;;13.60;;
17566;SDS011;8901;52.088;5.084;2023-04-05T01:14:08;14.63;;;13.43;;
17566;SDS011;8901;52.088;5.084;2023-04-05T01:16:37;15.97;;;14.40;;
17566;SDS011;8901;52.088;5.084;2023-04-05T01:19:04;15.53;;;14.13;;
17566;SDS011;8901;52.088;5.084;2023-04-05T01:24:19;15.33;;;14.03;;
17566;SDS011;8901;52.088;5.084;2023-04-05T01:26:58;14.60;;;13.37;;
17566;SDS011;8901;52.088;5.084;2023-04-05T01:29:36;14.37;;;13.17;;
17566;SDS011;8901;52.088;5.084;2023-04-05T01:32:06;15.27;;;13.97;;
17566;SDS011;8901;52.088;5.084;2023-04-05T01:34:39;15.77;;;14.27;;
17566;SDS011;8901;52.088;5.084;2023-04-05T01:37:10;15.20;;;13.90;;
17566;SDS011;8901;52.088;5.084;2023-04-05T01:39:38;15.67;;;14.27;;
17566;SDS011;8901;52.088;5.084;2023-04-05T01:42:05;16.10;;;14.57;;
17566;SDS011;8901;52.088;5.084;2023-04-05T01:44:33;16.30;;;14.90;;
17566;SDS011;8901;52.088;5.084;2023-04-05T01:47:01;15.17;;;13.93;;
17566;SDS011;8901;52.088;5.084;2023-04-05T01:49:28;15.83;;;14.33;;
17566;SDS011;8901;52.088;5.084;2023-04-05T01:51:56;16.07;;;14.57;;
17566;SDS011;8901;52.088;5.084;2023-04-05T01:54:23;16.30;;;14.80;;
17566;SDS011;8901;52.088;5.084;2023-04-05T01:56:50;16.10;;;14.67;;
17566;SDS011;8901;52.088;5.084;2023-04-05T01:59:17;16.53;;;15.00;;
17566;SDS011;8901;52.088;5.084;2023-04-05T02:01:44;16.20;;;14.70;;
17566;SDS011;8901;52.088;5.084;2023-04-05T02:04:13;15.53;;;14.23;;
17566;SDS011;8901;52.088;5.084;2023-04-05T02:06:40;16.47;;;15.13;;
17566;SDS011;8901;52.088;5.084;2023-04-05T02:09:07;15.20;;;13.80;;
17566;SDS011;8901;52.088;5.084;2023-04-05T02:11:34;16.10;;;14.70;;
17566;SDS011;8901;52.088;5.084;2023-04-05T02:14:01;15.87;;;14.33;;
17566;SDS011;8901;52.088;5.084;2023-04-05T02:16:29;15.83;;;14.40;;
17566;SDS011;8901;52.088;5.084;2023-04-05T02:18:57;16.03;;;14.57;;
17566;SDS011;8901;52.088;5.084;2023-04-05T02:21:26;16.20;;;14.80;;
17566;SDS011;8901;52.088;5.084;2023-04-05T02:23:54;15.70;;;14.50;;
17566;SDS011;8901;52.088;5.084;2023-04-05T02:26:21;15.90;;;14.70;;
17566;SDS011;8901;52.088;5.084;2023-04-05T02:28:48;16.60;;;14.90;;
17566;SDS011;8901;52.088;5.084;2023-04-05T02:31:15;15.70;;;14.30;;
17566;SDS011;8901;52.088;5.084;2023-04-05T02:33:42;15.03;;;13.77;;
17566;SDS011;8901;52.088;5.084;2023-04-05T02:36:11;15.03;;;13.80;;
17566;SDS011;8901;52.088;5.084;2023-04-05T02:38:39;15.90;;;14.60;;
17566;SDS011;8901;52.088;5.084;2023-04-05T02:41:07;15.43;;;14.20;;
17566;SDS011;8901;52.088;5.084;2023-04-05T02:43:35;16.43;;;15.13;;
17566;SDS011;8901;52.088;5.084;2023-04-05T02:46:03;16.17;;;14.87;;
17566;SDS011;8901;52.088;5.084;2023-04-05T02:48:30;15.63;;;14.27;;
17566;SDS011;8901;52.088;5.084;2023-04-05T02:50:57;16.43;;;14.97;;
17566;SDS011;8901;52.088;5.084;2023-04-05T02:53:24;16.47;;;15.07;;
17566;SDS011;8901;52.088;5.084;2023-04-05T02:55:53;16.50;;;15.20;;
17566;SDS011;8901;52.088;5.084;2023-04-05T02:58:20;16.73;;;15.33;;
17566;SDS011;8901;52.088;5.084;2023-04-05T03:00:48;16.07;;;14.60;;
17566;SDS011;8901;52.088;5.084;2023-04-05T03:03:17;17.13;;;15.53;;
17566;SDS011;8901;52.088;5.084;2023-04-05T03:05:44;16.60;;;15.30;;
17566;SDS011;8901;52.088;5.084;2023-04-05T03:08:12;17.80;;;16.30;;
17566;SDS011;8901;52.088;5.084;2023-04-05T03:10:44;16.77;;;15.33;;
17566;SDS011;8901;52.088;5.084;2023-04-05T03:13:12;17.67;;;15.97;;
17566;SDS011;8901;52.088;5.084;2023-04-05T03:15:39;17.13;;;15.67;;
17566;SDS011;8901;52.088;5.084;2023-04-05T03:18:07;17.20;;;15.53;;
17566;SDS011;8901;52.088;5.084;2023-04-05T03:20:34;14.67;;;13.47;;
17566;SDS011;8901;52.088;5.084;2023-04-05T03:23:04;17.00;;;15.37;;
17566;SDS011;8901;52.088;5.084;2023-04-05T03:25:32;17.00;;;15.50;;
17566;SDS011;8901;52.088;5.084;2023-04-05T03:28:00;15.90;;;14.67;;
17566;SDS011;8901;52.088;5.084;2023-04-05T03:30:30;15.37;;;14.07;;
17566;SDS011;8901;52.088;5.084;2023-04-05T03:32:58;15.73;;;14.37;;
17566;SDS011;8901;52.088;5.084;2023-04-05T03:35:27;16.07;;;14.50;;
17566;SDS011;8901;52.088;5.084;2023-04-05T03:37:54;15.47;;;14.37;;
17566;SDS011;8901;52.088;5.084;2023-04-05T03:40:21;17.13;;;15.57;;
17566;SDS011;8901;52.088;5.084;2023-04-05T03:42:48;14.60;;;13.40;;
17566;SDS011;8901;52.088;5.084;2023-04-05T03:45:15;16.50;;;14.77;;
17566;SDS011;8901;52.088;5.084;2023-04-05T03:47:44;15.50;;;14.20;;
17566;SDS011;8901;52.088;5.084;2023-04-05T03:50:11;15.73;;;14.40;;
17566;SDS011;8901;52.088;5.084;2023-04-05T03:52:38;15.93;;;14.43;;
17566;SDS011;8901;52.088;5.084;2023-04-05T03:55:06;15.03;;;13.73;;
17566;SDS011;8901;52.088;5.084;2023-04-05T03:57:33;14.83;;;13.43;;
17566;SDS011;8901;52.088;5.084;2023-04-05T04:00:00;16.53;;;15.00;;
17566;SDS011;8901;52.088;5.084;2023-04-05T04:02:38;16.33;;;15.13;;
17566;SDS011;8901;52.088;5.084;2023-04-05T04:05:06;15.27;;;13.97;;
17566;SDS011;8901;52.088;5.084;2023-04-05T04:07:33;15.53;;;14.27;;
17566;SDS011;8901;52.088;5.084;2023-04-05T04:10:01;15.43;;;14.07;;
17566;SDS011;8901;52.088;5.084;2023-04-05T04:12:28;15.07;;;13.67;;
17566;SDS011;8901;52.088;5.084;2023-04-05T04:14:55;14.77;;;13.50;;
17566;SDS011;8901;52.088;5.084;2023-04-05T04:17:25;14.90;;;13.60;;
17566;SDS011;8901;52.088;5.084;2023-04-05T04:19:52;15.07;;;13.77;;
17566;SDS011;8901;52.088;5.084;2023-04-05T04:22:21;14.27;;;13.07;;
17566;SDS011;8901;52.088;5.084;2023-04-05T04:24:50;15.10;;;13.67;;
17566;SDS011;8901;52.088;5.084;2023-04-05T04:27:18;15.20;;;13.80;;
17566;SDS011;8901;52.088;5.084;2023-04-05T04:29:46;14.43;;;13.23;;
17566;SDS011;8901;52.088;5.084;2023-04-05T04:32:13;15.57;;;14.17;;
17566;SDS011;8901;52.088;5.084;2023-04-05T04:34:41;14.87;;;13.57;;
17566;SDS011;8901;52.088;5.084;2023-04-05T04:37:09;14.93;;;13.63;;
17566;SDS011;8901;52.088;5.084;2023-04-05T04:39:43;14.70;;;13.40;;
17566;SDS011;8901;52.088;5.084;2023-04-05T04:42:11;14.10;;;13.00;;
17566;SDS011;8901;52.088;5.084;2023-04-05T04:44:40;15.07;;;13.47;;
17566;SDS011;8901;52.088;5.084;2023-04-05T04:47:07;14.37;;;13.00;;
17566;SDS011;8901;52.088;5.084;2023-04-05T04:49:37;13.80;;;12.60;;
17566;SDS011;8901;52.088;5.084;2023-04-05T04:52:05;15.10;;;13.70;;
17566;SDS011;8901;52.088;5.084;2023-04-05T04:54:33;14.43;;;13.13;;
17566;SDS011;8901;52.088;5.084;2023-04-05T04:57:02;15.77;;;14.17;;
17566;SDS011;8901;52.088;5.084;2023-04-05T04:59:30;14.80;;;13.43;;
17566;SDS011;8901;52.088;5.084;2023-04-05T05:02:12;15.43;;;13.87;;
17566;SDS011;8901;52.088;5.084;2023-04-05T05:04:39;14.23;;;13.10;;
17566;SDS011;8901;52.088;5.084;2023-04-05T05:07:07;14.63;;;13.33;;
17566;SDS011;8901;52.088;5.084;2023-04-05T05:09:35;14.70;;;13.30;;
17566;SDS011;8901;52.088;5.084;2023-04-05T05:12:04;15.03;;;13.77;;
17566;SDS011;8901;52.088;5.084;2023-04-05T05:14:31;15.50;;;14.10;;
17566;SDS011;8901;52.088;5.084;2023-04-05T05:16:58;16.40;;;13.37;;
17566;SDS011;8901;52.088;5.084;2023-04-05T05:19:25;14.80;;;13.40;;
17566;SDS011;8901;52.088;5.084;2023-04-05T05:21:52;14.40;;;13.00;;
17566;SDS011;8901;52.088;5.084;2023-04-05T05:24:20;14.87;;;13.47;;
17566;SDS011;8901;52.088;5.084;2023-04-05T05:26:47;14.70;;;13.30;;
17566;SDS011;8901;52.088;5.084;2023-04-05T05:29:16;14.20;;;12.83;;
17566;SDS011;8901;52.088;5.084;2023-04-05T05:31:44;18.53;;;16.57;;
17566;SDS011;8901;52.088;5.084;2023-04-05T05:34:11;19.10;;;17.50;;
17566;SDS011;8901;52.088;5.084;2023-04-05T05:36:38;19.50;;;17.47;;
17566;SDS011;8901;52.088;5.084;2023-04-05T05:39:05;18.87;;;17.07;;
17566;SDS011;8901;52.088;5.084;2023-04-05T05:41:33;19.57;;;17.87;;
17566;SDS011;8901;52.088;5.084;2023-04-05T05:44:00;18.43;;;16.70;;
17566;SDS011;8901;52.088;5.084;2023-04-05T05:46:28;19.07;;;17.37;;
17566;SDS011;8901;52.088;5.084;2023-04-05T05:48:56;19.70;;;17.90;;
17566;SDS011;8901;52.088;5.084;2023-04-05T05:51:23;19.33;;;17.50;;
17566;SDS011;8901;52.088;5.084;2023-04-05T05:53:50;20.33;;;18.53;;
17566;SDS011;8901;52.088;5.084;2023-04-05T05:56:17;20.37;;;18.23;;
17566;SDS011;8901;52.088;5.084;2023-04-05T05:58:45;20.60;;;18.90;;
17566;SDS011;8901;52.088;5.084;2023-04-05T06:01:12;19.60;;;17.97;;
17566;SDS011;8901;52.088;5.084;2023-04-05T06:03:40;20.13;;;18.33;;
17566;SDS011;8901;52.088;5.084;2023-04-05T06:06:07;16.10;;;14.40;;
17566;SDS011;8901;52.088;5.084;2023-04-05T06:08:35;18.63;;;14.90;;
17566;SDS011;8901;52.088;5.084;2023-04-05T06:11:02;17.17;;;15.00;;
17566;SDS011;8901;52.088;5.084;2023-04-05T06:13:29;14.27;;;13.07;;
17566;SDS011;8901;52.088;5.084;2023-04-05T06:15:58;14.60;;;13.13;;
17566;SDS011;8901;52.088;5.084;2023-04-05T06:18:26;13.33;;;10.80;;
17566;SDS011;8901;52.088;5.084;2023-04-05T06:20:55;13.00;;;8.50;;
17566;SDS011;8901;52.088;5.084;2023-04-05T06:23:22;12.27;;;9.10;;
17566;SDS011;8901;52.088;5.084;2023-04-05T06:25:49;10.90;;;9.67;;
17566;SDS011;8901;52.088;5.084;2023-04-05T06:28:16;11.47;;;9.43;;
17566;SDS011;8901;52.088;5.084;2023-04-05T06:30:43;10.53;;;9.10;;
17566;SDS011;8901;52.088;5.084;2023-04-05T06:33:11;16.93;;;9.13;;
17566;SDS011;8901;52.088;5.084;2023-04-05T06:35:38;12.47;;;8.50;;
17566;SDS011;8901;52.088;5.084;2023-04-05T06:38:06;14.57;;;8.00;;
17566;SDS011;8901;52.088;5.084;2023-04-05T06:40:33;11.47;;;8.30;;
17566;SDS011;8901;52.088;5.084;2023-04-05T06:43:00;10.73;;;8.17;;
17566;SDS011;8901;52.088;5.084;2023-04-05T06:45:28;13.83;;;9.93;;
17566;SDS011;8901;52.088;5.084;2023-04-05T06:47:55;12.73;;;9.53;;
17566;SDS011;8901;52.088;5.084;2023-04-05T06:50:22;17.53;;;11.57;;
17566;SDS011;8901;52.088;5.084;2023-04-05T06:52:50;10.93;;;9.83;;
17566;SDS011;8901;52.088;5.084;2023-04-05T06:55:19;12.03;;;10.93;;
17566;SDS011;8901;52.088;5.084;2023-04-05T06:57:46;13.47;;;12.17;;
17566;SDS011;8901;52.088;5.084;2023-04-05T07:00:13;13.67;;;12.43;;
17566;SDS011;8901;52.088;5.084;2023-04-05T07:02:42;15.60;;;13.97;;
17566;SDS011;8901;52.088;5.084;2023-04-05T07:05:09;16.57;;;15.07;;
17566;SDS011;8901;52.088;5.084;2023-04-05T07:07:37;13.93;;;12.53;;
17566;SDS011;8901;52.088;5.084;2023-04-05T07:10:05;14.83;;;13.27;;
17566;SDS011;8901;52.088;5.084;2023-04-05T07:12:33;14.80;;;13.43;;
17566;SDS011;8901;52.088;5.084;2023-04-05T07:15:01;13.83;;;11.87;;
17566;SDS011;8901;52.088;5.084;2023-04-05T07:17:28;14.97;;;13.37;;
17566;SDS011;8901;52.088;5.084;2023-04-05T07:19:55;16.17;;;14.57;;
17566;SDS011;8901;52.088;5.084;2023-04-05T07:22:22;14.87;;;13.57;;
17566;SDS011;8901;52.088;5.084;2023-04-05T07:24:49;16.07;;;14.50;;
17566;SDS011;8901;52.088;5.084;2023-04-05T07:27:17;15.50;;;14.00;;
17566;SDS011;8901;52.088;5.084;2023-04-05T07:29:46;15.30;;;14.03;;
17566;SDS011;8901;52.088;5.084;2023-04-05T07:32:13;18.47;;;17.07;;
17566;SDS011;8901;52.088;5.084;2023-04-05T07:34:40;17.93;;;16.43;;
17566;SDS011;8901;52.088;5.084;2023-04-05T07:37:07;18.13;;;16.83;;
17566;SDS011;8901;52.088;5.084;2023-04-05T07:39:34;18.87;;;17.47;;
17566;SDS011;8901;52.088;5.084;2023-04-05T07:42:01;18.77;;;17.40;;
17566;SDS011;8901;52.088;5.084;2023-04-05T07:44:28;18.33;;;16.77;;
17566;SDS011;8901;52.088;5.084;2023-04-05T07:46:57;17.33;;;15.50;;
17566;SDS011;8901;52.088;5.084;2023-04-05T07:49:24;20.33;;;18.73;;
17566;SDS011;8901;52.088;5.084;2023-04-05T07:51:53;18.57;;;16.87;;
17566;SDS011;8901;52.088;5.084;2023-04-05T07:54:20;20.70;;;18.87;;
17566;SDS011;8901;52.088;5.084;2023-04-05T07:56:47;18.17;;;16.77;;
17566;SDS011;8901;52.088;5.084;2023-04-05T07:59:15;18.93;;;17.53;;
17566;SDS011;8901;52.088;5.084;2023-04-05T08:01:42;23.57;;;21.83;;
17566;SDS011;8901;52.088;5.084;2023-04-05T08:04:10;23.03;;;21.23;;
17566;SDS011;8901;52.088;5.084;2023-04-05T08:06:38;23.20;;;21.27;;
17566;SDS011;8901;52.088;5.084;2023-04-05T08:09:05;21.33;;;19.63;;
17566;SDS011;8901;52.088;5.084;2023-04-05T08:11:33;22.73;;;20.90;;
17566;SDS011;8901;52.088;5.084;2023-04-05T08:14:00;23.97;;;22.37;;
17566;SDS011;8901;52.088;5.084;2023-04-05T08:16:27;24.33;;;22.63;;
17566;SDS011;8901;52.088;5.084;2023-04-05T08:18:54;24.20;;;22.30;;
17566;SDS011;8901;52.088;5.084;2023-04-05T08:21:23;25.57;;;23.87;;
17566;SDS011;8901;52.088;5.084;2023-04-05T08:23:50;25.80;;;24.03;;
17566;SDS011;8901;52.088;5.084;2023-04-05T08:26:17;23.80;;;22.30;;
17566;SDS011;8901;52.088;5.084;2023-04-05T08:28:44;24.90;;;23.20;;
17566;SDS011;8901;52.088;5.084;2023-04-05T08:31:12;24.57;;;22.87;;
17566;SDS011;8901;52.088;5.084;2023-04-05T08:33:39;24.53;;;22.90;;
17566;SDS011;8901;52.088;5.084;2023-04-05T08:36:06;26.37;;;24.57;;
17566;SDS011;8901;52.088;5.084;2023-04-05T08:38:36;26.63;;;24.77;;
17566;SDS011;8901;52.088;5.084;2023-04-05T08:41:06;24.00;;;22.40;;
17566;SDS011;8901;52.088;5.084;2023-04-05T08:43:37;25.67;;;23.77;;
17566;SDS011;8901;52.088;5.084;2023-04-05T08:46:05;24.83;;;23.13;;
17566;SDS011;8901;52.088;5.084;2023-04-05T08:48:34;23.37;;;21.77;;
17566;SDS011;8901;52.088;5.084;2023-04-05T08:51:02;25.37;;;23.57;;
17566;SDS011;8901;52.088;5.084;2023-04-05T08:53:29;25.57;;;23.87;;
17566;SDS011;8901;52.088;5.084;2023-04-05T08:55:57;25.00;;;23.20;;
17566;SDS011;8901;52.088;5.084;2023-04-05T08:58:26;25.90;;;24.20;;
17566;SDS011;8901;52.088;5.084;2023-04-05T09:00:54;26.00;;;24.23;;
17566;SDS011;8901;52.088;5.084;2023-04-05T09:03:22;23.67;;;21.97;;
17566;SDS011;8901;52.088;5.084;2023-04-05T09:05:50;23.97;;;22.47;;
17566;SDS011;8901;52.088;5.084;2023-04-05T09:08:18;25.40;;;23.70;;
17566;SDS011;8901;52.088;5.084;2023-04-05T09:10:47;25.53;;;23.83;;
17566;SDS011;8901;52.088;5.084;2023-04-05T09:13:17;24.50;;;22.90;;
17566;SDS011;8901;52.088;5.084;2023-04-05T09:15:44;26.17;;;24.23;;
17566;SDS011;8901;52.088;5.084;2023-04-05T09:18:11;24.37;;;22.60;;
17566;SDS011;8901;52.088;5.084;2023-04-05T09:20:38;23.73;;;21.83;;
17566;SDS011;8901;52.088;5.084;2023-04-05T09:23:06;25.57;;;23.87;;
17566;SDS011;8901;52.088;5.084;2023-04-05T09:25:34;26.13;;;24.40;;
17566;SDS011;8901;52.088;5.084;2023-04-05T09:28:03;25.20;;;23.33;;
17566;SDS011;8901;52.088;5.084;2023-04-05T09:30:31;24.70;;;23.00;;
17566;SDS011;8901;52.088;5.084;2023-04-05T09:33:01;24.50;;;22.90;;
17566;SDS011;8901;52.088;5.084;2023-04-05T09:35:28;26.00;;;23.93;;
17566;SDS011;8901;52.088;5.084;2023-04-05T09:37:57;24.47;;;22.67;;
17566;SDS011;8901;52.088;5.084;2023-04-05T09:40:42;25.00;;;23.30;;
17566;SDS011;8901;52.088;5.084;2023-04-05T09:54:58;25.63;;;23.80;;
17566;SDS011;8901;52.088;5.084;2023-04-05T10:00:24;25.07;;;23.17;;
17566;SDS011;8901;52.088;5.084;2023-04-05T10:15:03;25.77;;;23.73;;
17566;SDS011;8901;52.088;5.084;2023-04-05T10:20:39;25.80;;;23.87;;
17566;SDS011;8901;52.088;5.084;2023-04-05T10:23:11;25.13;;;23.37;;
17566;SDS011;8901;52.088;5.084;2023-04-05T10:25:43;26.53;;;24.63;;
17566;SDS011;8901;52.088;5.084;2023-04-05T10:28:15;26.27;;;24.47;;
17566;SDS011;8901;52.088;5.084;2023-04-05T10:30:46;26.40;;;24.60;;
17566;SDS011;8901;52.088;5.084;2023-04-05T10:33:15;26.47;;;24.63;;
17566;SDS011;8901;52.088;5.084;2023-04-05T10:35:53;25.03;;;23.10;;
17566;SDS011;8901;52.088;5.084;2023-04-05T10:38:23;25.43;;;23.50;;
17566;SDS011;8901;52.088;5.084;2023-04-05T10:40:52;24.83;;;23.17;;
17566;SDS011;8901;52.088;5.084;2023-04-05T10:43:20;25.80;;;24.13;;
17566;SDS011;8901;52.088;5.084;2023-04-05T10:45:51;25.40;;;23.73;;
17566;SDS011;8901;52.088;5.084;2023-04-05T10:48:20;25.27;;;23.20;;
17566;SDS011;8901;52.088;5.084;2023-04-05T10:50:51;26.03;;;24.23;;
17566;SDS011;8901;52.088;5.084;2023-04-05T10:53:18;25.27;;;23.50;;
17566;SDS011;8901;52.088;5.084;2023-04-05T10:55:50;24.97;;;23.20;;
17566;SDS011;8901;52.088;5.084;2023-04-05T10:58:18;25.53;;;23.67;;
17566;SDS011;8901;52.088;5.084;2023-04-05T11:00:46;25.93;;;23.93;;
17566;SDS011;8901;52.088;5.084;2023-04-05T11:06:05;24.83;;;23.07;;
17566;SDS011;8901;52.088;5.084;2023-04-05T11:08:44;24.53;;;22.93;;
17566;SDS011;8901;52.088;5.084;2023-04-05T11:11:13;26.30;;;24.43;;
17566;SDS011;8901;52.088;5.084;2023-04-05T11:13:46;25.50;;;23.80;;
17566;SDS011;8901;52.088;5.084;2023-04-05T11:16:14;25.67;;;23.87;;
17566;SDS011;8901;52.088;5.084;2023-04-05T11:18:43;25.83;;;24.03;;
17566;SDS011;8901;52.088;5.084;2023-04-05T11:21:12;26.00;;;24.30;;
17566;SDS011;8901;52.088;5.084;2023-04-05T11:24:01;25.03;;;23.33;;
17566;SDS011;8901;52.088;5.084;2023-04-05T11:26:30;24.33;;;22.73;;
17566;SDS011;8901;52.088;5.084;2023-04-05T11:28:58;25.70;;;23.97;;
17566;SDS011;8901;52.088;5.084;2023-04-05T11:31:25;26.47;;;24.60;;
17566;SDS011;8901;52.088;5.084;2023-04-05T11:33:53;24.90;;;23.30;;
17566;SDS011;8901;52.088;5.084;2023-04-05T11:36:30;26.93;;;25.10;;
17566;SDS011;8901;52.088;5.084;2023-04-05T11:41:44;24.03;;;22.37;;
17566;SDS011;8901;52.088;5.084;2023-04-05T11:44:12;25.60;;;23.70;;
17566;SDS011;8901;52.088;5.084;2023-04-05T11:46:40;24.10;;;22.50;;
17566;SDS011;8901;52.088;5.084;2023-04-05T11:49:07;24.40;;;22.70;;
17566;SDS011;8901;52.088;5.084;2023-04-05T11:51:36;27.57;;;24.93;;
17566;SDS011;8901;52.088;5.084;2023-04-05T11:54:06;24.73;;;23.03;;
17566;SDS011;8901;52.088;5.084;2023-04-05T11:56:33;25.33;;;23.23;;
17566;SDS011;8901;52.088;5.084;2023-04-05T11:59:01;25.37;;;23.33;;
17566;SDS011;8901;52.088;5.084;2023-04-05T12:01:29;24.90;;;22.90;;
17566;SDS011;8901;52.088;5.084;2023-04-05T12:03:56;25.97;;;24.07;;
17566;SDS011;8901;52.088;5.084;2023-04-05T12:06:24;25.90;;;23.90;;
17566;SDS011;8901;52.088;5.084;2023-04-05T12:08:54;26.40;;;24.50;;
17566;SDS011;8901;52.088;5.084;2023-04-05T12:11:22;25.53;;;23.70;;
17566;SDS011;8901;52.088;5.084;2023-04-05T12:13:52;25.27;;;23.57;;
17566;SDS011;8901;52.088;5.084;2023-04-05T12:16:22;28.20;;;25.97;;
17566;SDS011;8901;52.088;5.084;2023-04-05T12:18:51;25.33;;;23.63;;
17566;SDS011;8901;52.088;5.084;2023-04-05T12:21:19;24.43;;;22.83;;
17566;SDS011;8901;52.088;5.084;2023-04-05T12:23:46;25.23;;;23.33;;
17566;SDS011;8901;52.088;5.084;2023-04-05T12:26:15;25.50;;;23.50;;
17566;SDS011;8901;52.088;5.084;2023-04-05T12:28:48;24.87;;;23.07;;
17566;SDS011;8901;52.088;5.084;2023-04-05T12:31:16;25.27;;;23.40;;
17566;SDS011;8901;52.088;5.084;2023-04-05T12:33:45;26.30;;;24.40;;
17566;SDS011;8901;52.088;5.084;2023-04-05T12:36:12;26.30;;;24.40;;
17566;SDS011;8901;52.088;5.084;2023-04-05T12:38:40;24.97;;;23.17;;
17566;SDS011;8901;52.088;5.084;2023-04-05T12:41:07;26.07;;;24.27;;
17566;SDS011;8901;52.088;5.084;2023-04-05T12:43:39;25.60;;;23.57;;
17566;SDS011;8901;52.088;5.084;2023-04-05T12:46:09;25.23;;;23.53;;
17566;SDS011;8901;52.088;5.084;2023-04-05T12:48:37;24.70;;;23.10;;
17566;SDS011;8901;52.088;5.084;2023-04-05T12:54:07;25.57;;;23.83;;
17566;SDS011;8901;52.088;5.084;2023-04-05T12:59:42;25.83;;;24.03;;
17566;SDS011;8901;52.088;5.084;2023-04-05T13:02:09;26.00;;;24.10;;
17566;SDS011;8901;52.088;5.084;2023-04-05T13:04:37;25.33;;;23.63;;
17566;SDS011;8901;52.088;5.084;2023-04-05T13:07:04;25.43;;;23.73;;
17566;SDS011;8901;52.088;5.084;2023-04-05T13:09:31;25.43;;;23.73;;
17566;SDS011;8901;52.088;5.084;2023-04-05T13:12:01;24.73;;;23.03;;
17566;SDS011;8901;52.088;5.084;2023-04-05T13:14:28;24.87;;;23.17;;
17566;SDS011;8901;52.088;5.084;2023-04-05T13:16:56;25.30;;;23.60;;
17566;SDS011;8901;52.088;5.084;2023-04-05T13:19:24;26.03;;;24.13;;
17566;SDS011;8901;52.088;5.084;2023-04-05T13:21:51;26.37;;;24.47;;
17566;SDS011;8901;52.088;5.084;2023-04-05T13:24:18;27.60;;;25.70;;
17566;SDS011;8901;52.088;5.084;2023-04-05T13:26:45;26.67;;;24.73;;
17566;SDS011;8901;52.088;5.084;2023-04-05T13:29:12;26.60;;;24.77;;
17566;SDS011;8901;52.088;5.084;2023-04-05T13:31:40;26.67;;;24.67;;
17566;SDS011;8901;52.088;5.084;2023-04-05T13:34:10;26.50;;;24.27;;
17566;SDS011;8901;52.088;5.084;2023-04-05T13:36:37;26.00;;;24.07;;
17566;SDS011;8901;52.088;5.084;2023-04-05T13:39:05;26.30;;;24.40;;
17566;SDS011;8901;52.088;5.084;2023-04-05T13:41:32;27.40;;;25.40;;
17566;SDS011;8901;52.088;5.084;2023-04-05T13:43:59;26.13;;;24.37;;
17566;SDS011;8901;52.088;5.084;2023-04-05T13:46:26;24.87;;;22.80;;
17566;SDS011;8901;52.088;5.084;2023-04-05T13:48:53;25.60;;;23.60;;
17566;SDS011;8901;52.088;5.084;2023-04-05T13:51:22;24.97;;;22.93;;
17566;SDS011;8901;52.088;5.084;2023-04-05T13:53:49;26.87;;;24.63;;
17566;SDS011;8901;52.088;5.084;2023-04-05T13:56:16;25.40;;;23.60;;
17566;SDS011;8901;52.088;5.084;2023-04-05T13:58:43;26.10;;;24.20;;
17566;SDS011;8901;52.088;5.084;2023-04-05T14:01:11;26.00;;;24.03;;
17566;SDS011;8901;52.088;5.084;2023-04-05T14:03:38;26.83;;;24.63;;
17566;SDS011;8901;52.088;5.084;2023-04-05T14:06:05;26.90;;;24.77;;
17566;SDS011;8901;52.088;5.084;2023-04-05T14:08:36;26.63;;;24.57;;
17566;SDS011;8901;52.088;5.084;2023-04-05T14:11:11;27.17;;;25.27;;
17566;SDS011;8901;52.088;5.084;2023-04-05T14:13:39;27.50;;;25.57;;
17566;SDS011;8901;52.088;5.084;2023-04-05T14:16:16;26.03;;;24.23;;
17566;SDS011;8901;52.088;5.084;2023-04-05T14:18:43;27.53;;;25.43;;
17566;SDS011;8901;52.088;5.084;2023-04-05T14:21:10;27.33;;;25.43;;
17566;SDS011;8901;52.088;5.084;2023-04-05T14:23:39;27.10;;;25.20;;
17566;SDS011;8901;52.088;5.084;2023-04-05T14:26:09;27.63;;;25.43;;
17566;SDS011;8901;52.088;5.084;2023-04-05T14:28:36;27.30;;;25.40;;
17566;SDS011;8901;52.088;5.084;2023-04-05T14:31:03;26.50;;;24.73;;
17566;SDS011;8901;52.088;5.084;2023-04-05T14:33:30;26.53;;;24.73;;
17566;SDS011;8901;52.088;5.084;2023-04-05T14:35:57;26.13;;;24.03;;
17566;SDS011;8901;52.088;5.084;2023-04-05T14:38:24;26.87;;;24.77;;
17566;SDS011;8901;52.088;5.084;2023-04-05T14:40:53;26.60;;;24.47;;
17566;SDS011;8901;52.088;5.084;2023-04-05T14:43:20;24.90;;;23.10;;
17566;SDS011;8901;52.088;5.084;2023-04-05T14:45:47;26.47;;;24.33;;
17566;SDS011;8901;52.088;5.084;2023-04-05T14:48:14;26.10;;;24.40;;
17566;SDS011;8901;52.088;5.084;2023-04-05T14:50:42;25.50;;;23.70;;
17566;SDS011;8901;52.088;5.084;2023-04-05T14:53:09;26.60;;;24.60;;
17566;SDS011;8901;52.088;5.084;2023-04-05T14:55:36;26.57;;;24.77;;
17566;SDS011;8901;52.088;5.084;2023-04-05T14:58:04;26.20;;;24.10;;
17566;SDS011;8901;52.088;5.084;2023-04-05T15:00:32;26.73;;;24.83;;
17566;SDS011;8901;52.088;5.084;2023-04-05T15:02:59;26.40;;;24.40;;
17566;SDS011;8901;52.088;5.084;2023-04-05T15:05:26;26.43;;;24.43;;
17566;SDS011;8901;52.088;5.084;2023-04-05T15:07:53;25.97;;;24.27;;
17566;SDS011;8901;52.088;5.084;2023-04-05T15:10:21;26.20;;;24.10;;
17566;SDS011;8901;52.088;5.084;2023-04-05T15:12:48;26.33;;;24.33;;
17566;SDS011;8901;52.088;5.084;2023-04-05T15:15:16;25.60;;;23.90;;
17566;SDS011;8901;52.088;5.084;2023-04-05T15:17:43;26.53;;;24.47;;
17566;SDS011;8901;52.088;5.084;2023-04-05T15:20:11;25.87;;;24.07;;
17566;SDS011;8901;52.088;5.084;2023-04-05T15:22:38;25.50;;;23.67;;
17566;SDS011;8901;52.088;5.084;2023-04-05T15:25:20;26.30;;;24.50;;
17566;SDS011;8901;52.088;5.084;2023-04-05T15:27:48;24.27;;;22.50;;
17566;SDS011;8901;52.088;5.084;2023-04-05T15:30:17;24.77;;;23.10;;
17566;SDS011;8901;52.088;5.084;2023-04-05T15:32:45;24.17;;;22.57;;
17566;SDS011;8901;52.088;5.084;2023-04-05T15:35:12;24.43;;;22.83;;
17566;SDS011;8901;52.088;5.084;2023-04-05T15:37:40;26.33;;;24.17;;
17566;SDS011;8901;52.088;5.084;2023-04-05T15:40:10;24.97;;;23.00;;
17566;SDS011;8901;52.088;5.084;2023-04-05T15:42:40;25.00;;;23.20;;
17566;SDS011;8901;52.088;5.084;2023-04-05T15:45:08;25.33;;;23.50;;